sensor_id;sensor_type;location;lat;lon;timestamp;P1;durP1;ratioP1;P2;durP2;ratioP2
3369;SDS011;42042;51.948;7.628;2023-03-31T00:02:14;6.20;;;2.47;;
3369;SDS011;42042;51.948;7.628;2023-03-31T00:04:46;3.77;;;2.30;;
3369;SDS011;42042;51.948;7.628;2023-03-31T00:07:16;8.93;;;2.70;;
3369;SDS011;42042;51.948;7.628;2023-03-31T00:09:48;6.63;;;2.30;;
3369;SDS011;42042;51.948;7.628;2023-03-31T00:12:19;4.10;;;2.77;;
3369;SDS011;42042;51.948;7.628;2023-03-31T00:14:48;7.83;;;2.57;;
3369;SDS011;42042;51.948;7.628;2023-03-31T00:17:15;7.77;;;2.70;;
3369;SDS011;42042;51.948;7.628;2023-03-31T00:19:42;6.70;;;2.80;;
3369;SDS011;42042;51.948;7.628;2023-03-31T00:22:13;3.00;;;2.20;;
3369;SDS011;42042;51.948;7.628;2023-03-31T00:24:42;5.47;;;2.97;;
3369;SDS011;42042;51.948;7.628;2023-03-31T00:27:10;5.17;;;2.57;;
3369;SDS011;42042;51.948;7.628;2023-03-31T00:29:37;4.80;;;2.80;;
3369;SDS011;42042;51.948;7.628;2023-03-31T00:32:07;4.47;;;2.60;;
3369;SDS011;42042;51.948;7.628;2023-03-31T00:34:34;4.60;;;2.47;;
3369;SDS011;42042;51.948;7.628;2023-03-31T00:37:02;5.40;;;2.83;;
3369;SDS011;42042;51.948;7.628;2023-03-31T00:39:29;5.30;;;2.80;;
3369;SDS011;42042;51.948;7.628;2023-03-31T00:42:00;6.90;;;3.47;;
3369;SDS011;42042;51.948;7.628;2023-03-31T00:44:28;5.60;;;2.90;;
3369;SDS011;42042;51.948;7.628;2023-03-31T00:46:58;5.53;;;2.70;;
3369;SDS011;42042;51.948;7.628;2023-03-31T00:49:30;7.40;;;3.00;;
3369;SDS011;42042;51.948;7.628;2023-03-31T00:51:59;6.80;;;3.50;;
3369;SDS011;42042;51.948;7.628;2023-03-31T00:54:27;7.70;;;3.20;;
3369;SDS011;42042;51.948;7.628;2023-03-31T00:56:57;5.23;;;2.80;;
3369;SDS011;42042;51.948;7.628;2023-03-31T00:59:27;9.50;;;3.10;;
3369;SDS011;42042;51.948;7.628;2023-03-31T01:01:56;6.90;;;2.97;;
3369;SDS011;42042;51.948;7.628;2023-03-31T01:04:26;5.40;;;3.00;;
3369;SDS011;42042;51.948;7.628;2023-03-31T01:06:57;9.60;;;3.80;;
3369;SDS011;42042;51.948;7.628;2023-03-31T01:09:26;7.93;;;2.50;;
3369;SDS011;42042;51.948;7.628;2023-03-31T01:11:59;4.20;;;2.67;;
3369;SDS011;42042;51.948;7.628;2023-03-31T01:14:26;11.27;;;2.97;;
3369;SDS011;42042;51.948;7.628;2023-03-31T01:16:54;9.17;;;3.07;;
3369;SDS011;42042;51.948;7.628;2023-03-31T01:19:23;7.77;;;2.90;;
3369;SDS011;42042;51.948;7.628;2023-03-31T01:22:04;11.53;;;2.87;;
3369;SDS011;42042;51.948;7.628;2023-03-31T01:24:44;9.80;;;3.80;;
3369;SDS011;42042;51.948;7.628;2023-03-31T01:27:20;9.30;;;4.00;;
3369;SDS011;42042;51.948;7.628;2023-03-31T01:38:19;6.40;;;2.37;;
3369;SDS011;42042;51.948;7.628;2023-03-31T01:41:02;8.50;;;3.13;;
3369;SDS011;42042;51.948;7.628;2023-03-31T01:43:34;5.90;;;2.57;;
3369;SDS011;42042;51.948;7.628;2023-03-31T01:46:04;9.37;;;2.63;;
3369;SDS011;42042;51.948;7.628;2023-03-31T01:48:37;7.90;;;2.53;;
3369;SDS011;42042;51.948;7.628;2023-03-31T01:51:06;8.33;;;2.60;;
3369;SDS011;42042;51.948;7.628;2023-03-31T01:53:39;7.63;;;2.93;;
3369;SDS011;42042;51.948;7.628;2023-03-31T01:56:12;5.13;;;3.00;;
3369;SDS011;42042;51.948;7.628;2023-03-31T01:58:41;5.30;;;2.47;;
3369;SDS011;42042;51.948;7.628;2023-03-31T02:01:12;4.73;;;2.80;;
3369;SDS011;42042;51.948;7.628;2023-03-31T02:03:42;6.00;;;2.90;;
3369;SDS011;42042;51.948;7.628;2023-03-31T02:06:11;8.13;;;2.70;;
3369;SDS011;42042;51.948;7.628;2023-03-31T02:08:40;5.13;;;2.33;;
3369;SDS011;42042;51.948;7.628;2023-03-31T02:11:11;3.87;;;2.57;;
3369;SDS011;42042;51.948;7.628;2023-03-31T02:13:39;9.20;;;3.00;;
3369;SDS011;42042;51.948;7.628;2023-03-31T02:16:09;5.10;;;2.80;;
3369;SDS011;42042;51.948;7.628;2023-03-31T02:18:40;5.27;;;2.80;;
3369;SDS011;42042;51.948;7.628;2023-03-31T02:21:08;6.00;;;2.20;;
3369;SDS011;42042;51.948;7.628;2023-03-31T02:23:37;4.13;;;2.63;;
3369;SDS011;42042;51.948;7.628;2023-03-31T02:26:06;8.03;;;3.50;;
3369;SDS011;42042;51.948;7.628;2023-03-31T02:28:36;4.57;;;2.30;;
3369;SDS011;42042;51.948;7.628;2023-03-31T02:31:06;10.03;;;3.50;;
3369;SDS011;42042;51.948;7.628;2023-03-31T02:33:35;9.97;;;2.53;;
3369;SDS011;42042;51.948;7.628;2023-03-31T02:36:03;5.70;;;3.50;;
3369;SDS011;42042;51.948;7.628;2023-03-31T02:38:31;7.13;;;3.10;;
3369;SDS011;42042;51.948;7.628;2023-03-31T02:41:01;7.23;;;2.70;;
3369;SDS011;42042;51.948;7.628;2023-03-31T02:43:28;6.73;;;2.30;;
3369;SDS011;42042;51.948;7.628;2023-03-31T02:45:57;6.27;;;2.60;;
3369;SDS011;42042;51.948;7.628;2023-03-31T02:48:25;6.80;;;2.53;;
3369;SDS011;42042;51.948;7.628;2023-03-31T02:51:00;5.23;;;2.50;;
3369;SDS011;42042;51.948;7.628;2023-03-31T02:53:32;6.10;;;2.67;;
3369;SDS011;42042;51.948;7.628;2023-03-31T02:56:09;10.50;;;2.27;;
3369;SDS011;42042;51.948;7.628;2023-03-31T02:58:44;7.20;;;2.80;;
3369;SDS011;42042;51.948;7.628;2023-03-31T03:01:21;4.77;;;2.70;;
3369;SDS011;42042;51.948;7.628;2023-03-31T03:03:55;7.07;;;2.83;;
3369;SDS011;42042;51.948;7.628;2023-03-31T03:06:27;4.20;;;2.60;;
3369;SDS011;42042;51.948;7.628;2023-03-31T03:09:00;11.63;;;2.93;;
3369;SDS011;42042;51.948;7.628;2023-03-31T03:11:31;4.67;;;2.70;;
3369;SDS011;42042;51.948;7.628;2023-03-31T03:14:02;5.53;;;3.40;;
3369;SDS011;42042;51.948;7.628;2023-03-31T03:16:34;6.60;;;2.97;;
3369;SDS011;42042;51.948;7.628;2023-03-31T03:19:04;7.17;;;3.00;;
3369;SDS011;42042;51.948;7.628;2023-03-31T03:21:31;7.00;;;3.57;;
3369;SDS011;42042;51.948;7.628;2023-03-31T03:23:59;7.30;;;3.13;;
3369;SDS011;42042;51.948;7.628;2023-03-31T03:26:26;5.30;;;3.60;;
3369;SDS011;42042;51.948;7.628;2023-03-31T03:28:54;8.47;;;3.63;;
3369;SDS011;42042;51.948;7.628;2023-03-31T03:31:22;5.23;;;3.20;;
3369;SDS011;42042;51.948;7.628;2023-03-31T03:33:51;5.63;;;3.40;;
3369;SDS011;42042;51.948;7.628;2023-03-31T03:36:18;10.30;;;3.30;;
3369;SDS011;42042;51.948;7.628;2023-03-31T03:38:47;8.23;;;3.43;;
3369;SDS011;42042;51.948;7.628;2023-03-31T03:41:15;7.00;;;3.27;;
3369;SDS011;42042;51.948;7.628;2023-03-31T03:43:42;9.30;;;4.60;;
3369;SDS011;42042;51.948;7.628;2023-03-31T03:46:09;7.13;;;4.00;;
3369;SDS011;42042;51.948;7.628;2023-03-31T03:48:36;14.60;;;4.33;;
3369;SDS011;42042;51.948;7.628;2023-03-31T03:51:05;8.30;;;4.40;;
3369;SDS011;42042;51.948;7.628;2023-03-31T03:53:32;11.93;;;4.13;;
3369;SDS011;42042;51.948;7.628;2023-03-31T03:55:59;6.90;;;4.13;;
3369;SDS011;42042;51.948;7.628;2023-03-31T03:58:26;7.07;;;4.03;;
3369;SDS011;42042;51.948;7.628;2023-03-31T04:00:54;16.33;;;4.23;;
3369;SDS011;42042;51.948;7.628;2023-03-31T04:03:22;13.33;;;5.10;;
3369;SDS011;42042;51.948;7.628;2023-03-31T04:05:49;13.87;;;5.30;;
3369;SDS011;42042;51.948;7.628;2023-03-31T04:08:18;13.10;;;5.20;;
3369;SDS011;42042;51.948;7.628;2023-03-31T04:10:45;11.40;;;5.20;;
3369;SDS011;42042;51.948;7.628;2023-03-31T04:13:13;12.30;;;6.07;;
3369;SDS011;42042;51.948;7.628;2023-03-31T04:15:40;10.03;;;5.53;;
3369;SDS011;42042;51.948;7.628;2023-03-31T04:18:08;7.50;;;4.93;;
3369;SDS011;42042;51.948;7.628;2023-03-31T04:20:42;10.53;;;5.17;;
3369;SDS011;42042;51.948;7.628;2023-03-31T04:23:10;9.33;;;5.70;;
3369;SDS011;42042;51.948;7.628;2023-03-31T04:25:40;12.23;;;5.53;;
3369;SDS011;42042;51.948;7.628;2023-03-31T04:28:10;14.37;;;5.57;;
3369;SDS011;42042;51.948;7.628;2023-03-31T04:30:38;13.10;;;5.67;;
3369;SDS011;42042;51.948;7.628;2023-03-31T04:33:06;19.77;;;5.93;;
3369;SDS011;42042;51.948;7.628;2023-03-31T04:35:33;6.70;;;5.13;;
3369;SDS011;42042;51.948;7.628;2023-03-31T04:38:13;9.30;;;5.00;;
3369;SDS011;42042;51.948;7.628;2023-03-31T04:40:44;26.77;;;13.10;;
3369;SDS011;42042;51.948;7.628;2023-03-31T04:43:11;18.77;;;5.90;;
3369;SDS011;42042;51.948;7.628;2023-03-31T04:45:38;12.27;;;6.37;;
3369;SDS011;42042;51.948;7.628;2023-03-31T04:48:06;9.83;;;4.90;;
3369;SDS011;42042;51.948;7.628;2023-03-31T04:50:33;17.27;;;5.27;;
3369;SDS011;42042;51.948;7.628;2023-03-31T04:53:00;12.60;;;5.97;;
3369;SDS011;42042;51.948;7.628;2023-03-31T04:55:28;14.00;;;5.23;;
3369;SDS011;42042;51.948;7.628;2023-03-31T04:57:56;8.90;;;5.03;;
3369;SDS011;42042;51.948;7.628;2023-03-31T05:00:23;16.50;;;5.40;;
3369;SDS011;42042;51.948;7.628;2023-03-31T05:02:52;24.90;;;5.97;;
3369;SDS011;42042;51.948;7.628;2023-03-31T05:05:20;11.83;;;5.37;;
3369;SDS011;42042;51.948;7.628;2023-03-31T05:07:47;10.50;;;5.20;;
3369;SDS011;42042;51.948;7.628;2023-03-31T05:10:14;8.50;;;5.43;;
3369;SDS011;42042;51.948;7.628;2023-03-31T05:12:41;10.00;;;6.37;;
3369;SDS011;42042;51.948;7.628;2023-03-31T05:15:10;11.70;;;6.03;;
3369;SDS011;42042;51.948;7.628;2023-03-31T05:17:37;14.17;;;6.60;;
3369;SDS011;42042;51.948;7.628;2023-03-31T05:20:05;15.13;;;6.00;;
3369;SDS011;42042;51.948;7.628;2023-03-31T05:22:34;14.13;;;5.97;;
3369;SDS011;42042;51.948;7.628;2023-03-31T05:25:02;11.40;;;6.40;;
3369;SDS011;42042;51.948;7.628;2023-03-31T05:27:29;13.77;;;5.70;;
3369;SDS011;42042;51.948;7.628;2023-03-31T05:29:56;10.13;;;5.17;;
3369;SDS011;42042;51.948;7.628;2023-03-31T05:32:25;7.83;;;4.90;;
3369;SDS011;42042;51.948;7.628;2023-03-31T05:34:53;12.03;;;5.10;;
3369;SDS011;42042;51.948;7.628;2023-03-31T05:37:22;9.37;;;6.10;;
3369;SDS011;42042;51.948;7.628;2023-03-31T05:39:50;10.40;;;5.40;;
3369;SDS011;42042;51.948;7.628;2023-03-31T05:42:17;10.00;;;5.83;;
3369;SDS011;42042;51.948;7.628;2023-03-31T05:44:45;19.20;;;7.07;;
3369;SDS011;42042;51.948;7.628;2023-03-31T05:47:12;13.50;;;5.33;;
3369;SDS011;42042;51.948;7.628;2023-03-31T05:49:41;10.80;;;5.07;;
3369;SDS011;42042;51.948;7.628;2023-03-31T05:52:08;10.70;;;4.40;;
3369;SDS011;42042;51.948;7.628;2023-03-31T05:54:36;7.13;;;4.40;;
3369;SDS011;42042;51.948;7.628;2023-03-31T05:57:03;10.30;;;4.67;;
3369;SDS011;42042;51.948;7.628;2023-03-31T05:59:30;5.93;;;3.43;;
3369;SDS011;42042;51.948;7.628;2023-03-31T06:01:59;7.47;;;3.10;;
3369;SDS011;42042;51.948;7.628;2023-03-31T06:04:27;11.17;;;4.00;;
3369;SDS011;42042;51.948;7.628;2023-03-31T06:06:56;12.13;;;3.90;;
3369;SDS011;42042;51.948;7.628;2023-03-31T06:09:24;10.73;;;3.53;;
3369;SDS011;42042;51.948;7.628;2023-03-31T06:11:52;6.70;;;3.17;;
3369;SDS011;42042;51.948;7.628;2023-03-31T06:14:19;5.10;;;2.97;;
3369;SDS011;42042;51.948;7.628;2023-03-31T06:16:46;9.07;;;3.20;;
3369;SDS011;42042;51.948;7.628;2023-03-31T06:19:14;9.57;;;3.40;;
3369;SDS011;42042;51.948;7.628;2023-03-31T06:21:41;11.73;;;3.60;;
3369;SDS011;42042;51.948;7.628;2023-03-31T06:24:10;7.80;;;3.17;;
3369;SDS011;42042;51.948;7.628;2023-03-31T06:26:37;8.77;;;3.40;;
3369;SDS011;42042;51.948;7.628;2023-03-31T06:29:04;6.70;;;3.10;;
3369;SDS011;42042;51.948;7.628;2023-03-31T06:31:31;10.83;;;3.33;;
3369;SDS011;42042;51.948;7.628;2023-03-31T06:33:58;9.03;;;3.40;;
3369;SDS011;42042;51.948;7.628;2023-03-31T06:36:26;12.20;;;2.60;;
3369;SDS011;42042;51.948;7.628;2023-03-31T06:38:53;5.80;;;2.73;;
3369;SDS011;42042;51.948;7.628;2023-03-31T06:41:21;4.73;;;2.90;;
3369;SDS011;42042;51.948;7.628;2023-03-31T06:43:49;8.40;;;2.70;;
3369;SDS011;42042;51.948;7.628;2023-03-31T06:46:16;10.67;;;3.20;;
3369;SDS011;42042;51.948;7.628;2023-03-31T06:48:43;5.30;;;3.17;;
3369;SDS011;42042;51.948;7.628;2023-03-31T06:51:10;6.77;;;2.67;;
3369;SDS011;42042;51.948;7.628;2023-03-31T06:53:37;3.43;;;2.90;;
3369;SDS011;42042;51.948;7.628;2023-03-31T06:56:05;9.77;;;2.90;;
3369;SDS011;42042;51.948;7.628;2023-03-31T06:58:33;7.70;;;2.50;;
3369;SDS011;42042;51.948;7.628;2023-03-31T07:01:02;6.53;;;2.50;;
3369;SDS011;42042;51.948;7.628;2023-03-31T07:03:29;9.50;;;3.33;;
3369;SDS011;42042;51.948;7.628;2023-03-31T07:05:57;17.30;;;3.40;;
3369;SDS011;42042;51.948;7.628;2023-03-31T07:08:24;9.00;;;3.13;;
3369;SDS011;42042;51.948;7.628;2023-03-31T07:10:53;8.93;;;2.80;;
3369;SDS011;42042;51.948;7.628;2023-03-31T07:13:21;5.63;;;2.40;;
3369;SDS011;42042;51.948;7.628;2023-03-31T07:15:50;6.03;;;2.60;;
3369;SDS011;42042;51.948;7.628;2023-03-31T07:18:18;6.80;;;2.30;;
3369;SDS011;42042;51.948;7.628;2023-03-31T07:20:46;7.97;;;2.33;;
3369;SDS011;42042;51.948;7.628;2023-03-31T07:23:14;7.00;;;2.20;;
3369;SDS011;42042;51.948;7.628;2023-03-31T07:25:42;5.70;;;2.60;;
3369;SDS011;42042;51.948;7.628;2023-03-31T07:28:09;7.13;;;2.70;;
3369;SDS011;42042;51.948;7.628;2023-03-31T07:30:37;4.10;;;2.47;;
3369;SDS011;42042;51.948;7.628;2023-03-31T07:33:07;4.37;;;2.03;;
3369;SDS011;42042;51.948;7.628;2023-03-31T07:35:36;5.20;;;2.30;;
3369;SDS011;42042;51.948;7.628;2023-03-31T07:38:03;6.70;;;2.17;;
3369;SDS011;42042;51.948;7.628;2023-03-31T07:40:30;5.00;;;2.27;;
3369;SDS011;42042;51.948;7.628;2023-03-31T07:42:58;4.77;;;2.70;;
3369;SDS011;42042;51.948;7.628;2023-03-31T07:45:25;6.20;;;3.07;;
3369;SDS011;42042;51.948;7.628;2023-03-31T07:47:53;2.20;;;2.00;;
3369;SDS011;42042;51.948;7.628;2023-03-31T07:50:22;3.50;;;2.20;;
3369;SDS011;42042;51.948;7.628;2023-03-31T07:52:49;4.07;;;2.50;;
3369;SDS011;42042;51.948;7.628;2023-03-31T07:55:17;6.23;;;3.10;;
3369;SDS011;42042;51.948;7.628;2023-03-31T07:57:45;4.60;;;2.40;;
3369;SDS011;42042;51.948;7.628;2023-03-31T08:00:13;2.50;;;2.30;;
3369;SDS011;42042;51.948;7.628;2023-03-31T08:02:40;4.23;;;2.50;;
3369;SDS011;42042;51.948;7.628;2023-03-31T08:05:08;6.47;;;2.40;;
3369;SDS011;42042;51.948;7.628;2023-03-31T08:07:38;5.43;;;2.57;;
3369;SDS011;42042;51.948;7.628;2023-03-31T08:10:07;8.70;;;2.60;;
3369;SDS011;42042;51.948;7.628;2023-03-31T08:12:34;8.83;;;2.70;;
3369;SDS011;42042;51.948;7.628;2023-03-31T08:15:02;4.80;;;2.40;;
3369;SDS011;42042;51.948;7.628;2023-03-31T08:17:29;3.10;;;2.47;;
3369;SDS011;42042;51.948;7.628;2023-03-31T08:19:56;7.70;;;3.60;;
3369;SDS011;42042;51.948;7.628;2023-03-31T08:22:23;7.70;;;2.80;;
3369;SDS011;42042;51.948;7.628;2023-03-31T08:24:52;7.17;;;3.10;;
3369;SDS011;42042;51.948;7.628;2023-03-31T08:27:19;7.20;;;2.50;;
3369;SDS011;42042;51.948;7.628;2023-03-31T08:29:47;5.30;;;2.73;;
3369;SDS011;42042;51.948;7.628;2023-03-31T08:32:14;9.20;;;3.53;;
3369;SDS011;42042;51.948;7.628;2023-03-31T08:34:41;9.43;;;3.10;;
3369;SDS011;42042;51.948;7.628;2023-03-31T08:37:10;6.90;;;2.33;;
3369;SDS011;42042;51.948;7.628;2023-03-31T08:39:37;7.30;;;2.77;;
3369;SDS011;42042;51.948;7.628;2023-03-31T08:42:08;5.33;;;3.37;;
3369;SDS011;42042;51.948;7.628;2023-03-31T08:44:37;6.80;;;2.07;;
3369;SDS011;42042;51.948;7.628;2023-03-31T08:47:06;7.20;;;2.17;;
3369;SDS011;42042;51.948;7.628;2023-03-31T08:49:39;4.17;;;2.60;;
3369;SDS011;42042;51.948;7.628;2023-03-31T08:52:09;4.37;;;2.30;;
3369;SDS011;42042;51.948;7.628;2023-03-31T08:54:39;4.67;;;2.23;;
3369;SDS011;42042;51.948;7.628;2023-03-31T08:57:11;4.10;;;2.30;;
3369;SDS011;42042;51.948;7.628;2023-03-31T08:59:40;5.30;;;2.17;;
3369;SDS011;42042;51.948;7.628;2023-03-31T09:02:11;2.70;;;2.03;;
3369;SDS011;42042;51.948;7.628;2023-03-31T09:04:45;3.50;;;2.70;;
3369;SDS011;42042;51.948;7.628;2023-03-31T09:07:17;5.53;;;2.30;;
3369;SDS011;42042;51.948;7.628;2023-03-31T09:09:47;3.73;;;2.30;;
3369;SDS011;42042;51.948;7.628;2023-03-31T09:12:20;3.50;;;2.20;;
3369;SDS011;42042;51.948;7.628;2023-03-31T09:14:49;3.33;;;3.03;;
3369;SDS011;42042;51.948;7.628;2023-03-31T09:17:19;4.03;;;2.47;;
3369;SDS011;42042;51.948;7.628;2023-03-31T09:19:48;4.13;;;2.77;;
3369;SDS011;42042;51.948;7.628;2023-03-31T09:22:17;5.17;;;2.37;;
3369;SDS011;42042;51.948;7.628;2023-03-31T09:24:50;4.70;;;2.30;;
3369;SDS011;42042;51.948;7.628;2023-03-31T09:27:20;8.90;;;3.63;;
3369;SDS011;42042;51.948;7.628;2023-03-31T09:29:50;3.80;;;2.60;;
3369;SDS011;42042;51.948;7.628;2023-03-31T09:32:19;3.30;;;2.30;;
3369;SDS011;42042;51.948;7.628;2023-03-31T09:34:46;3.63;;;2.37;;
3369;SDS011;42042;51.948;7.628;2023-03-31T09:37:16;5.40;;;2.60;;
3369;SDS011;42042;51.948;7.628;2023-03-31T09:39:43;4.77;;;2.30;;
3369;SDS011;42042;51.948;7.628;2023-03-31T09:42:11;5.50;;;3.07;;
3369;SDS011;42042;51.948;7.628;2023-03-31T09:44:40;4.50;;;2.23;;
3369;SDS011;42042;51.948;7.628;2023-03-31T09:47:10;36.27;;;2.90;;
3369;SDS011;42042;51.948;7.628;2023-03-31T09:49:39;6.40;;;3.53;;
3369;SDS011;42042;51.948;7.628;2023-03-31T09:52:10;8.23;;;4.20;;
3369;SDS011;42042;51.948;7.628;2023-03-31T09:54:39;6.03;;;2.90;;
3369;SDS011;42042;51.948;7.628;2023-03-31T09:57:11;5.80;;;2.40;;
3369;SDS011;42042;51.948;7.628;2023-03-31T09:59:40;5.07;;;2.70;;
3369;SDS011;42042;51.948;7.628;2023-03-31T10:02:21;3.53;;;2.17;;
3369;SDS011;42042;51.948;7.628;2023-03-31T10:04:51;6.50;;;2.77;;
3369;SDS011;42042;51.948;7.628;2023-03-31T10:07:19;4.60;;;2.10;;
3369;SDS011;42042;51.948;7.628;2023-03-31T10:09:47;8.33;;;3.07;;
3369;SDS011;42042;51.948;7.628;2023-03-31T10:12:15;7.20;;;3.30;;
3369;SDS011;42042;51.948;7.628;2023-03-31T10:14:46;4.33;;;2.50;;
3369;SDS011;42042;51.948;7.628;2023-03-31T10:17:14;3.83;;;2.57;;
3369;SDS011;42042;51.948;7.628;2023-03-31T10:19:46;7.00;;;2.50;;
3369;SDS011;42042;51.948;7.628;2023-03-31T10:22:14;5.77;;;2.60;;
3369;SDS011;42042;51.948;7.628;2023-03-31T10:24:42;5.67;;;3.10;;
3369;SDS011;42042;51.948;7.628;2023-03-31T10:27:13;3.30;;;2.60;;
3369;SDS011;42042;51.948;7.628;2023-03-31T10:29:43;5.57;;;3.07;;
3369;SDS011;42042;51.948;7.628;2023-03-31T10:32:14;8.80;;;3.60;;
3369;SDS011;42042;51.948;7.628;2023-03-31T10:34:43;5.23;;;2.73;;
3369;SDS011;42042;51.948;7.628;2023-03-31T10:37:13;4.83;;;2.90;;
3369;SDS011;42042;51.948;7.628;2023-03-31T10:39:41;4.33;;;2.80;;
3369;SDS011;42042;51.948;7.628;2023-03-31T10:42:10;5.00;;;2.77;;
3369;SDS011;42042;51.948;7.628;2023-03-31T10:44:37;7.30;;;2.70;;
3369;SDS011;42042;51.948;7.628;2023-03-31T10:47:06;3.93;;;3.20;;
3369;SDS011;42042;51.948;7.628;2023-03-31T10:49:43;4.27;;;2.83;;
3369;SDS011;42042;51.948;7.628;2023-03-31T10:52:14;18.03;;;8.63;;
3369;SDS011;42042;51.948;7.628;2023-03-31T10:54:46;6.17;;;4.50;;
3369;SDS011;42042;51.948;7.628;2023-03-31T10:57:13;5.27;;;3.13;;
3369;SDS011;42042;51.948;7.628;2023-03-31T10:59:45;8.10;;;2.90;;
3369;SDS011;42042;51.948;7.628;2023-03-31T11:02:33;6.30;;;3.23;;
3369;SDS011;42042;51.948;7.628;2023-03-31T11:05:07;7.60;;;3.33;;
3369;SDS011;42042;51.948;7.628;2023-03-31T11:07:40;8.30;;;3.20;;
3369;SDS011;42042;51.948;7.628;2023-03-31T11:10:16;6.00;;;2.83;;
3369;SDS011;42042;51.948;7.628;2023-03-31T11:12:47;8.83;;;4.73;;
3369;SDS011;42042;51.948;7.628;2023-03-31T11:15:20;6.90;;;3.10;;
3369;SDS011;42042;51.948;7.628;2023-03-31T11:17:52;5.13;;;3.20;;
3369;SDS011;42042;51.948;7.628;2023-03-31T11:20:27;4.03;;;2.80;;
3369;SDS011;42042;51.948;7.628;2023-03-31T11:22:58;10.03;;;3.60;;
3369;SDS011;42042;51.948;7.628;2023-03-31T11:25:30;6.30;;;3.13;;
3369;SDS011;42042;51.948;7.628;2023-03-31T11:30:47;4.80;;;2.73;;
3369;SDS011;42042;51.948;7.628;2023-03-31T11:33:21;7.57;;;3.00;;
3369;SDS011;42042;51.948;7.628;2023-03-31T11:35:57;9.70;;;2.90;;
3369;SDS011;42042;51.948;7.628;2023-03-31T11:38:31;6.10;;;2.80;;
3369;SDS011;42042;51.948;7.628;2023-03-31T11:41:01;9.03;;;3.00;;
3369;SDS011;42042;51.948;7.628;2023-03-31T11:43:31;4.77;;;2.23;;
3369;SDS011;42042;51.948;7.628;2023-03-31T11:46:01;6.73;;;3.20;;
3369;SDS011;42042;51.948;7.628;2023-03-31T11:48:32;5.90;;;2.90;;
3369;SDS011;42042;51.948;7.628;2023-03-31T11:51:02;2.90;;;2.53;;
3369;SDS011;42042;51.948;7.628;2023-03-31T11:53:31;5.40;;;3.40;;
3369;SDS011;42042;51.948;7.628;2023-03-31T11:55:59;7.87;;;2.70;;
3369;SDS011;42042;51.948;7.628;2023-03-31T11:58:29;7.33;;;3.27;;
3369;SDS011;42042;51.948;7.628;2023-03-31T12:00:58;6.50;;;2.73;;
3369;SDS011;42042;51.948;7.628;2023-03-31T12:03:28;12.03;;;2.63;;
3369;SDS011;42042;51.948;7.628;2023-03-31T12:05:58;3.47;;;2.60;;
3369;SDS011;42042;51.948;7.628;2023-03-31T12:08:30;6.83;;;3.40;;
3369;SDS011;42042;51.948;7.628;2023-03-31T12:11:02;5.73;;;2.77;;
3369;SDS011;42042;51.948;7.628;2023-03-31T12:13:32;5.43;;;2.70;;
3369;SDS011;42042;51.948;7.628;2023-03-31T12:16:03;4.00;;;2.70;;
3369;SDS011;42042;51.948;7.628;2023-03-31T12:18:33;6.80;;;2.97;;
3369;SDS011;42042;51.948;7.628;2023-03-31T12:21:02;5.97;;;2.57;;
3369;SDS011;42042;51.948;7.628;2023-03-31T12:23:34;7.77;;;2.70;;
3369;SDS011;42042;51.948;7.628;2023-03-31T12:26:04;8.47;;;3.17;;
3369;SDS011;42042;51.948;7.628;2023-03-31T12:28:33;10.53;;;3.10;;
3369;SDS011;42042;51.948;7.628;2023-03-31T12:31:01;8.40;;;2.90;;
3369;SDS011;42042;51.948;7.628;2023-03-31T12:33:29;5.27;;;2.40;;
3369;SDS011;42042;51.948;7.628;2023-03-31T12:36:02;10.03;;;3.30;;
3369;SDS011;42042;51.948;7.628;2023-03-31T12:38:38;5.93;;;2.50;;
3369;SDS011;42042;51.948;7.628;2023-03-31T12:41:08;6.07;;;2.40;;
3369;SDS011;42042;51.948;7.628;2023-03-31T12:43:49;8.40;;;2.50;;
3369;SDS011;42042;51.948;7.628;2023-03-31T12:46:23;8.10;;;2.23;;
3369;SDS011;42042;51.948;7.628;2023-03-31T12:48:59;13.73;;;2.53;;
3369;SDS011;42042;51.948;7.628;2023-03-31T12:51:37;4.73;;;1.97;;
3369;SDS011;42042;51.948;7.628;2023-03-31T12:54:16;6.50;;;3.70;;
3369;SDS011;42042;51.948;7.628;2023-03-31T12:57:01;6.10;;;2.30;;
3369;SDS011;42042;51.948;7.628;2023-03-31T12:59:31;7.33;;;2.87;;
3369;SDS011;42042;51.948;7.628;2023-03-31T13:02:16;8.33;;;2.23;;
3369;SDS011;42042;51.948;7.628;2023-03-31T13:04:45;7.20;;;2.70;;
3369;SDS011;42042;51.948;7.628;2023-03-31T13:07:32;6.13;;;2.27;;
3369;SDS011;42042;51.948;7.628;2023-03-31T13:10:22;5.07;;;2.30;;
3369;SDS011;42042;51.948;7.628;2023-03-31T13:12:55;5.70;;;2.30;;
3369;SDS011;42042;51.948;7.628;2023-03-31T13:15:24;4.00;;;2.30;;
3369;SDS011;42042;51.948;7.628;2023-03-31T13:17:53;7.53;;;3.70;;
3369;SDS011;42042;51.948;7.628;2023-03-31T13:20:32;7.80;;;2.03;;
3369;SDS011;42042;51.948;7.628;2023-03-31T13:23:13;4.80;;;2.43;;
3369;SDS011;42042;51.948;7.628;2023-03-31T13:25:45;9.93;;;2.50;;
3369;SDS011;42042;51.948;7.628;2023-03-31T13:28:22;8.43;;;3.20;;
3369;SDS011;42042;51.948;7.628;2023-03-31T13:31:00;8.40;;;2.90;;
3369;SDS011;42042;51.948;7.628;2023-03-31T13:33:29;7.27;;;2.77;;
3369;SDS011;42042;51.948;7.628;2023-03-31T13:38:45;7.83;;;3.00;;
3369;SDS011;42042;51.948;7.628;2023-03-31T13:41:22;6.60;;;2.53;;
3369;SDS011;42042;51.948;7.628;2023-03-31T13:43:55;5.63;;;2.10;;
3369;SDS011;42042;51.948;7.628;2023-03-31T13:46:30;8.53;;;2.57;;
3369;SDS011;42042;51.948;7.628;2023-03-31T13:49:02;11.83;;;2.60;;
3369;SDS011;42042;51.948;7.628;2023-03-31T13:51:35;7.53;;;2.87;;
3369;SDS011;42042;51.948;7.628;2023-03-31T13:54:29;7.53;;;2.87;;
3369;SDS011;42042;51.948;7.628;2023-03-31T13:57:08;9.57;;;3.50;;
3369;SDS011;42042;51.948;7.628;2023-03-31T13:59:52;11.50;;;3.03;;
3369;SDS011;42042;51.948;7.628;2023-03-31T14:05:24;7.03;;;2.70;;
3369;SDS011;42042;51.948;7.628;2023-03-31T14:07:54;6.53;;;2.73;;
3369;SDS011;42042;51.948;7.628;2023-03-31T14:10:23;4.57;;;2.20;;
3369;SDS011;42042;51.948;7.628;2023-03-31T14:13:02;7.93;;;3.30;;
3369;SDS011;42042;51.948;7.628;2023-03-31T14:15:29;6.50;;;2.67;;
3369;SDS011;42042;51.948;7.628;2023-03-31T14:17:57;3.93;;;2.03;;
3369;SDS011;42042;51.948;7.628;2023-03-31T14:20:25;8.13;;;2.43;;
3369;SDS011;42042;51.948;7.628;2023-03-31T14:22:56;5.53;;;2.40;;
3369;SDS011;42042;51.948;7.628;2023-03-31T14:25:30;10.83;;;2.73;;
3369;SDS011;42042;51.948;7.628;2023-03-31T14:28:06;6.33;;;2.77;;
3369;SDS011;42042;51.948;7.628;2023-03-31T14:30:42;6.30;;;3.30;;
3369;SDS011;42042;51.948;7.628;2023-03-31T14:33:15;9.47;;;2.63;;
3369;SDS011;42042;51.948;7.628;2023-03-31T14:35:48;8.90;;;3.03;;
3369;SDS011;42042;51.948;7.628;2023-03-31T14:38:19;5.57;;;2.50;;
3369;SDS011;42042;51.948;7.628;2023-03-31T14:40:47;8.30;;;2.70;;
3369;SDS011;42042;51.948;7.628;2023-03-31T14:43:19;7.10;;;2.70;;
3369;SDS011;42042;51.948;7.628;2023-03-31T14:45:51;9.13;;;2.43;;
3369;SDS011;42042;51.948;7.628;2023-03-31T14:48:22;12.27;;;2.53;;
3369;SDS011;42042;51.948;7.628;2023-03-31T14:50:54;9.53;;;3.20;;
3369;SDS011;42042;51.948;7.628;2023-03-31T14:53:22;11.97;;;2.77;;
3369;SDS011;42042;51.948;7.628;2023-03-31T14:55:50;9.30;;;2.90;;
3369;SDS011;42042;51.948;7.628;2023-03-31T14:58:22;6.23;;;2.80;;
3369;SDS011;42042;51.948;7.628;2023-03-31T15:00:50;7.60;;;2.90;;
3369;SDS011;42042;51.948;7.628;2023-03-31T15:03:18;10.10;;;3.10;;
3369;SDS011;42042;51.948;7.628;2023-03-31T15:05:45;10.30;;;2.37;;
3369;SDS011;42042;51.948;7.628;2023-03-31T15:08:13;6.93;;;2.27;;
3369;SDS011;42042;51.948;7.628;2023-03-31T15:10:43;13.43;;;3.03;;
3369;SDS011;42042;51.948;7.628;2023-03-31T15:13:11;9.80;;;4.00;;
3369;SDS011;42042;51.948;7.628;2023-03-31T15:15:42;7.20;;;3.30;;
3369;SDS011;42042;51.948;7.628;2023-03-31T15:18:10;7.60;;;3.93;;
3369;SDS011;42042;51.948;7.628;2023-03-31T15:20:39;9.03;;;3.37;;
3369;SDS011;42042;51.948;7.628;2023-03-31T15:23:17;8.17;;;2.93;;
3369;SDS011;42042;51.948;7.628;2023-03-31T15:25:48;11.10;;;2.90;;
3369;SDS011;42042;51.948;7.628;2023-03-31T15:28:17;10.80;;;3.50;;
3369;SDS011;42042;51.948;7.628;2023-03-31T15:30:46;6.03;;;3.10;;
3369;SDS011;42042;51.948;7.628;2023-03-31T15:33:16;11.60;;;3.37;;